createdAt,value
2022-11-21T00:01:20.238Z,8.50
2022-11-21T00:04:13.322Z,8.77
2022-11-21T00:07:09.469Z,7.28
2022-11-21T00:13:25.463Z,7.28
2022-11-21T00:16:34.251Z,7.68
2022-11-21T00:19:11.271Z,8.50
2022-11-21T00:22:26.209Z,7.75
2022-11-21T00:25:19.769Z,7.90
2022-11-21T00:28:17.965Z,8.10
2022-11-21T00:30:52.863Z,6.57
2022-11-21T00:33:32.317Z,8.82
2022-11-21T00:36:28.929Z,7.32
2022-11-21T00:39:34.261Z,8.20
2022-11-21T00:42:27.443Z,6.18
2022-11-21T00:51:32.939Z,5.88
2022-11-21T00:55:57.668Z,5.45
2022-11-21T00:58:16.622Z,5.45
2022-11-21T01:01:43.264Z,5.85
2022-11-21T01:04:40.542Z,5.03
2022-11-21T01:07:56.621Z,5.32
2022-11-21T01:10:53.570Z,5.32
2022-11-21T01:16:46.834Z,4.95
2022-11-21T01:19:44.800Z,6.03
2022-11-21T01:23:30.362Z,6.20
2022-11-21T01:26:12.554Z,5.68
2022-11-21T01:41:27.889Z,6.07
2022-11-21T01:44:33.792Z,5.57
2022-11-21T01:47:23.121Z,5.47
2022-11-21T01:50:55.966Z,6.22
2022-11-21T01:57:33.939Z,5.55
2022-11-21T02:00:18.149Z,5.57
2022-11-21T02:09:00.962Z,5.72
2022-11-21T02:12:31.622Z,4.18
2022-11-21T02:16:03.265Z,5.22
2022-11-21T02:19:18.945Z,5.78
2022-11-21T02:22:39.366Z,5.53
2022-11-21T02:25:36.661Z,5.50
2022-11-21T02:28:24.675Z,5.40
2022-11-21T02:31:21.712Z,4.85
2022-11-21T02:34:17.006Z,4.88
2022-11-21T02:37:23.550Z,5.97
2022-11-21T02:41:09.808Z,5.20
2022-11-21T02:44:41.106Z,4.85
2022-11-21T02:48:04.772Z,5.05
2022-11-21T02:51:07.854Z,4.50
2022-11-21T02:54:36.959Z,5.28
2022-11-21T03:01:05.978Z,4.93
2022-11-21T03:07:54.635Z,4.32
2022-11-21T03:11:01.333Z,4.20
2022-11-21T03:14:50.836Z,5.22
2022-11-21T03:18:07.242Z,5.45
2022-11-21T03:21:47.673Z,5.50
2022-11-21T03:27:11.286Z,4.72
2022-11-21T03:30:11.149Z,4.55
2022-11-21T03:33:05.843Z,5.15
2022-11-21T03:36:13.003Z,5.00
2022-11-21T03:39:30.028Z,5.03
2022-11-21T03:42:38.299Z,5.03
2022-11-21T03:46:20.951Z,4.65
2022-11-21T03:49:48.508Z,4.03
2022-11-21T03:56:16.314Z,5.00
2022-11-21T03:59:15.167Z,4.10
2022-11-21T04:02:00.578Z,5.50
2022-11-21T04:04:45.217Z,4.72
2022-11-21T04:08:05.882Z,3.90
2022-11-21T04:10:56.275Z,4.95
2022-11-21T04:14:15.252Z,4.80
2022-11-21T04:20:46.128Z,5.45
2022-11-21T04:23:44.620Z,5.15
2022-11-21T04:26:39.897Z,6.03
2022-11-21T04:29:36.931Z,5.30
2022-11-21T04:36:21.091Z,5.30
2022-11-21T04:43:56.950Z,4.43
2022-11-21T04:49:01.751Z,4.57
2022-11-21T04:52:37.352Z,5.43
2022-11-21T04:55:48.176Z,5.95
2022-11-21T04:58:37.813Z,6.55
2022-11-21T05:01:46.331Z,5.30
2022-11-21T05:04:40.695Z,4.95
2022-11-21T05:07:49.962Z,4.85
2022-11-21T05:11:13.939Z,5.25
2022-11-21T05:14:09.487Z,4.63
2022-11-21T05:17:00.677Z,5.63
2022-11-21T05:20:03.386Z,4.88
2022-11-21T05:35:42.747Z,6.13
2022-11-21T05:48:31.326Z,4.78
2022-11-21T05:51:47.317Z,6.22
2022-11-21T05:55:16.554Z,4.97
2022-11-21T05:58:18.863Z,5.70
2022-11-21T06:01:18.562Z,4.68
2022-11-21T06:04:20.261Z,6.40
2022-11-21T06:11:36.009Z,8.23
2022-11-21T06:14:48.450Z,6.10
2022-11-21T06:23:57.884Z,20.20
2022-11-21T06:26:58.222Z,27.80
2022-11-21T06:29:50.881Z,15.27
2022-11-21T06:32:39.168Z,9.20
2022-11-21T06:35:27.066Z,7.00
2022-11-21T06:38:12.495Z,5.97
2022-11-21T06:41:04.228Z,6.47
2022-11-21T06:44:35.180Z,6.65
2022-11-21T06:47:37.800Z,7.07
2022-11-21T06:54:16.717Z,6.63
2022-11-21T06:57:08.158Z,9.93
2022-11-21T06:59:55.771Z,8.27
2022-11-21T07:02:39.125Z,7.13
2022-11-21T07:14:27.663Z,7.20
2022-11-21T07:17:22.635Z,6.72
2022-11-21T07:20:03.879Z,7.15
2022-11-21T07:22:43.507Z,7.07
2022-11-21T07:25:36.670Z,6.20
2022-11-21T07:28:25.518Z,7.60
2022-11-21T07:34:38.246Z,8.68
2022-11-21T07:37:46.433Z,8.52
2022-11-21T07:44:34.793Z,9.68
2022-11-21T07:47:40.356Z,8.25
2022-11-21T07:50:39.437Z,8.20
2022-11-21T07:56:53.118Z,9.52
2022-11-21T08:05:59.597Z,9.88
2022-11-21T08:12:27.369Z,11.68
2022-11-21T08:15:42.409Z,12.60
2022-11-21T08:18:25.095Z,12.05
2022-11-21T08:21:25.541Z,10.70
2022-11-21T08:26:57.420Z,9.32
2022-11-21T08:30:05.697Z,9.13
2022-11-21T08:33:00.196Z,7.93
2022-11-21T08:36:17.402Z,7.85
2022-11-21T08:39:30.448Z,7.68
2022-11-21T08:42:21.292Z,7.32
2022-11-21T08:45:29.139Z,7.05
2022-11-21T08:48:23.179Z,7.22
2022-11-21T08:51:32.159Z,7.15
2022-11-21T08:54:59.490Z,7.65
2022-11-21T08:58:04.100Z,6.93
2022-11-21T09:01:10.531Z,7.13
2022-11-21T09:04:40.118Z,6.57
2022-11-21T09:08:10.469Z,6.18
2022-11-21T09:14:37.143Z,6.55
2022-11-21T09:21:48.586Z,4.78
2022-11-21T09:24:36.358Z,5.35
2022-11-21T09:28:11.775Z,4.20
2022-11-21T09:33:55.151Z,5.10
2022-11-21T09:36:53.200Z,5.07
2022-11-21T09:39:37.269Z,5.47
2022-11-21T09:46:14.990Z,5.70
2022-11-21T09:49:33.483Z,5.28
2022-11-21T09:52:22.591Z,4.88
2022-11-21T09:55:33.753Z,5.32
2022-11-21T09:58:41.228Z,4.97
2022-11-21T10:01:28.171Z,4.75
2022-11-21T10:04:45.354Z,5.03
2022-11-21T10:07:27.310Z,4.55
2022-11-21T10:11:16.085Z,4.85
2022-11-21T10:14:19.683Z,5.75
2022-11-21T10:17:34.534Z,5.82
2022-11-21T10:20:38.764Z,6.97
2022-11-21T10:24:21.943Z,6.22
2022-11-21T10:27:51.333Z,6.97
2022-11-21T10:30:37.219Z,6.47
2022-11-21T10:33:41.365Z,5.68
2022-11-21T10:37:07.728Z,5.75
2022-11-21T10:40:32.620Z,6.03
2022-11-21T10:44:45.763Z,5.82
2022-11-21T10:47:37.875Z,6.93
2022-11-21T10:51:11.792Z,6.20
2022-11-21T10:54:21.558Z,6.35
2022-11-21T10:58:19.930Z,6.22
2022-11-21T11:01:13.029Z,6.30
2022-11-21T11:04:52.215Z,5.95
2022-11-21T11:07:55.897Z,6.75
2022-11-21T11:14:27.384Z,6.53
2022-11-21T11:17:38.986Z,7.45
2022-11-21T11:20:48.330Z,7.30
2022-11-21T11:23:36.791Z,6.20
2022-11-21T11:26:24.488Z,6.97
2022-11-21T11:29:23.396Z,6.28
2022-11-21T11:32:01.959Z,7.05
2022-11-21T11:34:57.034Z,6.93
2022-11-21T11:37:40.309Z,6.97
2022-11-21T11:40:43.275Z,6.15
2022-11-21T11:43:55.734Z,5.93
2022-11-21T11:47:04.703Z,7.47
2022-11-21T11:50:06.790Z,6.22
2022-11-21T11:52:43.111Z,7.78
2022-11-21T11:55:21.991Z,7.30
2022-11-21T11:57:52.520Z,6.05
2022-11-21T12:00:49.236Z,6.53
2022-11-21T12:03:19.749Z,5.80
2022-11-21T12:06:10.180Z,6.22
2022-11-21T12:08:59.978Z,6.70
2022-11-21T12:11:57.685Z,6.55
2022-11-21T12:15:08.590Z,6.38
2022-11-21T12:18:20.018Z,6.38
2022-11-21T12:21:05.552Z,6.88
2022-11-21T12:23:58.061Z,6.63
2022-11-21T12:27:20.811Z,6.43
2022-11-21T12:29:54.506Z,7.15
2022-11-21T12:32:47.112Z,6.55
2022-11-21T12:35:49.761Z,6.53
2022-11-21T12:38:49.500Z,6.25
2022-11-21T12:41:53.833Z,6.43
2022-11-21T12:44:52.329Z,6.80
2022-11-21T12:47:54.356Z,5.68
2022-11-21T12:50:46.538Z,5.70
2022-11-21T12:54:02.503Z,6.75
2022-11-21T12:56:41.396Z,6.80
2022-11-21T12:59:12.675Z,6.70
2022-11-21T13:02:04.748Z,6.78
2022-11-21T13:04:38.876Z,7.28
